CheckWX is a tool to help pilots better visualize weather data.  It is not intended as a substitute for an official pre-flight weather briefing.

19:42:36 UTC

KSJX METAR
Beaver Island Airport
Beaver Island, Michigan, USA
Current

28 mins ago

KSJX 261915Z AUTO 24009KT 10SM CLR 18/08 A3009 RMK AO2 T01820082
Observed
May-26 @ 19:15 UTC
Wind
  • 240° at 9 KTS
Visibility
10 SM
Flight Rules
VFR
Cloud Levels
  • Clear skies
Temperature
18°C / 64°F
Dewpoint
C / 46°F
Humidity
52%
Altimeter
30.09" Hg
Pressure
1018.92 hPa
Previous

48 mins ago

KSJX 261855Z AUTO 23009KT 10SM CLR 18/08 A3009 RMK AO2 T01800082
Observed
May-26 @ 18:55 UTC
Wind
  • 230° at 9 KTS
Visibility
10 SM
Flight Rules
VFR
Cloud Levels
  • Clear skies
Temperature
18°C / 64°F
Dewpoint
C / 46°F
Humidity
52%
Altimeter
30.09" Hg
Pressure
1018.92 hPa
Previous

1 hour ago

KSJX 261835Z AUTO 23009KT 10SM CLR 17/08 A3009 RMK AO2 T01720084
Observed
May-26 @ 18:35 UTC
Wind
  • 230° at 9 KTS
Visibility
10 SM
Flight Rules
VFR
Cloud Levels
  • Clear skies
Temperature
17°C / 63°F
Dewpoint
C / 46°F
Humidity
56%
Altimeter
30.09" Hg
Pressure
1018.92 hPa